createdAt,value
2023-04-27T00:00:00.952Z,4.90
2023-04-27T00:02:29.214Z,4.90
2023-04-27T00:04:57.807Z,4.90
2023-04-27T00:07:26.605Z,4.70
2023-04-27T00:09:56.157Z,4.60
2023-04-27T00:12:24.729Z,4.60
2023-04-27T00:14:52.897Z,4.50
2023-04-27T00:17:21.234Z,4.60
2023-04-27T00:19:49.458Z,4.60
2023-04-27T00:22:17.657Z,4.50
2023-04-27T00:24:45.989Z,4.50
2023-04-27T00:27:15.544Z,4.50
2023-04-27T00:29:43.864Z,4.50
2023-04-27T00:32:12.413Z,4.40
2023-04-27T00:34:40.720Z,4.40
2023-04-27T00:37:08.878Z,4.30
2023-04-27T00:39:37.114Z,4.30
2023-04-27T00:42:06.422Z,4.20
2023-04-27T00:44:36.115Z,4.20
2023-04-27T00:47:06.156Z,4.30
2023-04-27T00:49:34.691Z,4.20
2023-04-27T00:52:03.650Z,4.20
2023-04-27T00:54:32.772Z,4.20
2023-04-27T00:57:01.240Z,4.10
2023-04-27T00:59:30.838Z,4.00
2023-04-27T01:02:03.811Z,4.00
2023-04-27T01:04:33.208Z,4.00
2023-04-27T01:07:02.854Z,3.90
2023-04-27T01:09:31.134Z,3.80
2023-04-27T01:11:59.759Z,3.80
2023-04-27T01:14:28.037Z,3.80
2023-04-27T01:16:56.450Z,3.80
2023-04-27T01:19:26.218Z,3.70
2023-04-27T01:21:54.419Z,3.70
2023-04-27T01:24:23.955Z,3.70
2023-04-27T01:26:53.963Z,3.70
2023-04-27T01:29:22.496Z,3.70
2023-04-27T01:31:50.815Z,3.80
2023-04-27T01:34:19.058Z,3.80
2023-04-27T01:36:47.302Z,3.80
2023-04-27T01:39:15.603Z,3.80
2023-04-27T01:41:46.217Z,3.80
2023-04-27T01:44:14.519Z,3.80
2023-04-27T01:46:42.886Z,3.80
2023-04-27T01:49:11.402Z,3.80
2023-04-27T01:51:39.810Z,3.80
2023-04-27T01:54:08.073Z,3.80
2023-04-27T01:56:36.262Z,3.70
2023-04-27T01:59:05.837Z,3.70
2023-04-27T02:01:34.578Z,3.60
2023-04-27T02:04:02.964Z,3.60
2023-04-27T02:06:31.480Z,3.50
2023-04-27T02:08:59.823Z,3.50
2023-04-27T02:11:29.293Z,3.50
2023-04-27T02:13:57.467Z,3.50
2023-04-27T02:16:27.052Z,3.50
2023-04-27T02:18:55.282Z,3.50
2023-04-27T02:21:24.182Z,3.40
2023-04-27T02:23:52.569Z,3.40
2023-04-27T02:26:22.510Z,3.40
2023-04-27T02:28:52.059Z,3.40
2023-04-27T02:31:20.663Z,3.40
2023-04-27T02:33:50.504Z,3.40
2023-04-27T02:36:18.731Z,3.40
2023-04-27T02:38:46.943Z,3.40
2023-04-27T02:41:15.287Z,3.40
2023-04-27T02:43:43.480Z,3.30
2023-04-27T02:46:12.238Z,3.30
2023-04-27T02:48:40.452Z,3.30
2023-04-27T02:51:10.033Z,3.30
2023-04-27T02:53:38.356Z,3.20
2023-04-27T02:56:07.120Z,3.20
2023-04-27T02:58:35.378Z,3.20
2023-04-27T03:01:03.671Z,3.20
2023-04-27T03:03:32.007Z,3.10
2023-04-27T03:06:00.416Z,3.00
2023-04-27T03:08:30.057Z,3.00
2023-04-27T03:10:58.233Z,2.90
2023-04-27T03:13:26.417Z,2.90
2023-04-27T03:15:54.618Z,2.90
2023-04-27T03:18:22.837Z,2.90
2023-04-27T03:20:51.112Z,3.00
2023-04-27T03:23:19.288Z,2.90
2023-04-27T03:25:49.280Z,2.70
2023-04-27T03:28:17.494Z,2.60
2023-04-27T03:30:46.338Z,2.60
2023-04-27T03:33:14.905Z,2.50
2023-04-27T03:35:43.117Z,2.60
2023-04-27T03:38:11.314Z,2.50
2023-04-27T03:40:39.650Z,2.60
2023-04-27T03:43:09.223Z,2.50
2023-04-27T03:45:37.401Z,2.50
2023-04-27T03:48:07.036Z,2.40
2023-04-27T03:50:35.447Z,2.50
2023-04-27T03:53:03.658Z,2.50
2023-04-27T03:55:32.658Z,2.50
2023-04-27T03:58:00.987Z,2.50
2023-04-27T04:00:31.375Z,2.50
2023-04-27T04:03:00.190Z,2.40
2023-04-27T04:05:28.471Z,2.50
2023-04-27T04:07:56.907Z,2.50
2023-04-27T04:10:25.425Z,2.40
2023-04-27T04:12:53.697Z,2.30
2023-04-27T04:15:22.110Z,2.30
2023-04-27T04:17:51.920Z,2.20
2023-04-27T04:20:20.230Z,2.20
2023-04-27T04:22:48.529Z,2.10
2023-04-27T04:25:16.836Z,2.10
2023-04-27T04:27:45.211Z,2.20
2023-04-27T04:30:14.877Z,2.20
2023-04-27T04:32:45.030Z,2.20
2023-04-27T04:35:16.220Z,2.20
2023-04-27T04:37:44.492Z,2.20
2023-04-27T04:40:14.097Z,2.30
2023-04-27T04:42:42.259Z,2.30
2023-04-27T04:45:11.583Z,2.40
2023-04-27T04:47:39.999Z,2.40
2023-04-27T04:50:10.453Z,2.50
2023-04-27T04:52:40.270Z,2.50
2023-04-27T04:55:09.137Z,2.60
2023-04-27T04:57:37.365Z,2.70
2023-04-27T05:00:11.389Z,2.80
2023-04-27T05:02:39.832Z,2.90
2023-04-27T05:05:09.357Z,3.00
2023-04-27T05:07:39.049Z,3.10
2023-04-27T05:10:08.307Z,3.20
2023-04-27T05:12:36.530Z,3.30
2023-04-27T05:15:05.341Z,3.50
2023-04-27T05:17:33.626Z,3.60
2023-04-27T05:20:01.888Z,3.80
2023-04-27T05:22:30.056Z,4.00
2023-04-27T05:24:59.744Z,4.20
2023-04-27T05:27:28.011Z,4.50
2023-04-27T05:29:56.207Z,4.80
2023-04-27T05:32:24.396Z,4.90
2023-04-27T05:34:52.955Z,5.20
2023-04-27T05:37:21.141Z,5.30
2023-04-27T05:39:49.335Z,5.50
2023-04-27T05:42:18.871Z,5.60
2023-04-27T05:44:47.176Z,5.60
2023-04-27T05:47:16.973Z,5.60
2023-04-27T05:49:45.586Z,5.70
2023-04-27T05:52:13.714Z,5.70
2023-04-27T05:54:41.877Z,5.90
2023-04-27T05:57:10.101Z,6.00
2023-04-27T05:59:39.622Z,6.10
2023-04-27T06:02:08.294Z,6.10
2023-04-27T06:04:37.494Z,6.20
2023-04-27T06:07:10.408Z,6.30
2023-04-27T06:09:38.813Z,6.40
2023-04-27T06:12:08.130Z,6.50
2023-04-27T06:14:39.163Z,6.50
2023-04-27T06:17:07.386Z,6.70
2023-04-27T06:19:35.595Z,6.80
2023-04-27T06:22:04.386Z,7.00
2023-04-27T06:24:32.702Z,7.20
2023-04-27T06:27:01.391Z,7.20
2023-04-27T06:29:29.963Z,7.40
2023-04-27T06:31:59.644Z,7.50
2023-04-27T06:34:27.999Z,7.70
2023-04-27T06:36:56.400Z,7.90
2023-04-27T06:39:24.722Z,8.00
2023-04-27T06:41:52.921Z,8.20
2023-04-27T06:44:21.099Z,8.40
2023-04-27T06:46:49.438Z,8.60
2023-04-27T06:49:19.045Z,8.70
2023-04-27T06:51:47.628Z,8.80
2023-04-27T06:54:16.569Z,8.90
2023-04-27T06:56:45.731Z,9.00
2023-04-27T06:59:14.090Z,9.00
2023-04-27T07:01:42.517Z,9.10
2023-04-27T07:04:10.912Z,9.20
2023-04-27T07:06:40.903Z,9.20
2023-04-27T07:09:19.882Z,9.30
2023-04-27T07:11:48.674Z,9.40
2023-04-27T07:14:16.958Z,9.30
2023-04-27T07:16:45.131Z,9.30
2023-04-27T07:19:13.509Z,9.30
2023-04-27T07:21:43.320Z,9.50
2023-04-27T07:24:11.497Z,9.70
2023-04-27T07:26:39.686Z,9.80
2023-04-27T07:29:23.073Z,9.90
2023-04-27T07:31:54.325Z,9.90
2023-04-27T07:34:23.064Z,10.00
2023-04-27T07:36:54.304Z,10.20
2023-04-27T07:39:22.715Z,10.30
2023-04-27T07:41:51.720Z,10.50
2023-04-27T07:44:20.830Z,10.60
2023-04-27T07:46:50.156Z,10.50
2023-04-27T07:49:18.480Z,10.50
2023-04-27T07:51:46.803Z,10.50
2023-04-27T07:54:16.334Z,10.60
2023-04-27T07:56:44.521Z,10.70
2023-04-27T07:59:13.001Z,10.70
2023-04-27T08:01:41.310Z,10.80
2023-04-27T08:04:09.870Z,10.80
2023-04-27T08:06:38.507Z,10.80
2023-04-27T08:09:07.881Z,10.90
2023-04-27T08:11:37.468Z,11.10
2023-04-27T08:14:05.653Z,11.20
2023-04-27T08:16:33.902Z,11.20
2023-04-27T08:19:02.411Z,11.30
2023-04-27T08:21:30.609Z,11.30
2023-04-27T08:23:58.776Z,11.40
2023-04-27T08:26:27.130Z,11.50
2023-04-27T08:28:57.516Z,11.60
2023-04-27T08:31:27.021Z,11.70
2023-04-27T08:33:55.370Z,11.90
2023-04-27T08:36:25.026Z,12.10
2023-04-27T08:38:53.365Z,12.20
2023-04-27T08:41:22.590Z,12.20
2023-04-27T08:43:51.515Z,12.30
2023-04-27T08:46:22.206Z,12.50
2023-04-27T08:48:52.324Z,12.40
2023-04-27T08:51:21.798Z,12.40
2023-04-27T08:53:52.074Z,12.60
2023-04-27T08:56:20.615Z,12.70
2023-04-27T08:58:48.850Z,12.80
2023-04-27T09:01:17.225Z,12.90
2023-04-27T09:03:47.969Z,12.80
2023-04-27T09:06:17.261Z,12.70
2023-04-27T09:08:47.940Z,12.70
2023-04-27T09:11:17.695Z,12.90
2023-04-27T09:13:46.193Z,13.00
2023-04-27T09:16:15.351Z,13.10
2023-04-27T09:18:46.021Z,13.20
2023-04-27T09:21:24.442Z,13.20
2023-04-27T09:23:53.194Z,13.20
2023-04-27T09:26:22.895Z,13.20
2023-04-27T09:28:53.678Z,13.20
2023-04-27T09:31:22.977Z,13.10
2023-04-27T09:33:57.563Z,13.20
2023-04-27T09:36:27.002Z,13.40
2023-04-27T09:38:55.643Z,13.40
2023-04-27T09:41:24.031Z,13.60
2023-04-27T09:43:53.455Z,13.70
2023-04-27T09:46:25.956Z,13.80
2023-04-27T09:48:56.213Z,13.70
2023-04-27T09:51:24.420Z,13.70
2023-04-27T09:53:55.398Z,13.90
2023-04-27T09:56:36.646Z,14.00
2023-04-27T09:59:21.661Z,14.00
2023-04-27T10:01:55.546Z,13.90
2023-04-27T10:04:46.378Z,14.00
2023-04-27T10:07:16.483Z,14.00
2023-04-27T10:09:47.344Z,14.00
2023-04-27T10:12:18.382Z,13.90
2023-04-27T10:14:54.354Z,14.10
2023-04-27T10:17:27.584Z,14.20
2023-04-27T10:19:59.816Z,14.10
2023-04-27T10:22:40.341Z,14.10
2023-04-27T10:25:19.038Z,14.30
2023-04-27T10:27:52.751Z,14.40
2023-04-27T10:30:23.063Z,14.40
2023-04-27T10:32:53.685Z,14.50
2023-04-27T10:35:24.423Z,14.40
2023-04-27T10:37:53.208Z,14.50
2023-04-27T10:40:21.401Z,14.50
2023-04-27T10:42:50.166Z,14.50
2023-04-27T10:45:31.140Z,14.40
2023-04-27T10:48:02.179Z,14.40
2023-04-27T10:50:32.434Z,14.20
2023-04-27T10:53:06.217Z,14.20
2023-04-27T10:55:36.153Z,14.30
2023-04-27T10:58:04.873Z,14.20
2023-04-27T11:00:36.638Z,14.20
2023-04-27T11:03:16.412Z,14.30
2023-04-27T11:05:48.313Z,14.40
2023-04-27T11:08:19.037Z,14.50
2023-04-27T11:10:50.030Z,14.60
2023-04-27T11:13:20.750Z,14.70
2023-04-27T11:15:51.172Z,14.70
2023-04-27T11:18:21.058Z,14.80
2023-04-27T11:20:53.619Z,14.70
2023-04-27T11:23:26.392Z,14.80
2023-04-27T11:25:55.100Z,14.90
2023-04-27T11:28:24.575Z,14.70
2023-04-27T11:30:59.371Z,14.80
2023-04-27T11:33:28.023Z,14.80
2023-04-27T11:35:58.243Z,14.90
2023-04-27T11:38:28.186Z,15.00
2023-04-27T11:41:05.060Z,15.00
2023-04-27T11:43:34.115Z,14.90
2023-04-27T11:46:04.934Z,15.00
2023-04-27T11:48:33.319Z,15.20
2023-04-27T11:51:02.893Z,15.30
2023-04-27T11:53:32.367Z,15.20
2023-04-27T11:56:02.294Z,15.40
2023-04-27T11:58:31.210Z,15.50
2023-04-27T12:00:59.490Z,15.70
2023-04-27T12:03:29.472Z,15.80
2023-04-27T12:06:07.285Z,15.70
2023-04-27T12:08:46.069Z,15.80
2023-04-27T12:11:15.012Z,15.80
2023-04-27T12:13:43.227Z,15.80
2023-04-27T12:16:11.751Z,15.80
2023-04-27T12:18:39.992Z,15.80
2023-04-27T12:21:08.535Z,15.70
2023-04-27T12:23:37.362Z,15.50
2023-04-27T12:26:07.002Z,15.60
2023-04-27T12:28:35.217Z,15.40
2023-04-27T12:31:06.166Z,15.50
2023-04-27T12:33:34.452Z,15.30
2023-04-27T12:36:02.606Z,15.40
2023-04-27T12:38:30.926Z,15.40
2023-04-27T12:41:01.890Z,15.50
2023-04-27T12:43:31.439Z,15.70
2023-04-27T12:45:59.623Z,15.70
2023-04-27T12:48:27.943Z,15.80
2023-04-27T12:50:56.217Z,15.70
2023-04-27T12:53:24.455Z,15.70
2023-04-27T12:55:53.484Z,15.70
2023-04-27T12:58:21.700Z,15.70
2023-04-27T13:00:51.360Z,15.40
2023-04-27T13:03:19.602Z,15.30
2023-04-27T13:05:47.860Z,15.30
2023-04-27T13:08:16.042Z,15.10
2023-04-27T13:10:45.423Z,15.10
2023-04-27T13:13:13.736Z,15.20
2023-04-27T13:15:41.986Z,15.30
2023-04-27T13:18:11.593Z,15.40
2023-04-27T13:20:39.922Z,15.50
2023-04-27T13:23:08.119Z,15.30
2023-04-27T13:25:36.421Z,15.20
2023-04-27T13:28:04.987Z,15.30
2023-04-27T13:30:33.185Z,15.30
2023-04-27T13:33:18.486Z,15.30
2023-04-27T13:35:52.292Z,15.20
2023-04-27T13:38:20.498Z,15.20
2023-04-27T13:40:48.676Z,15.30
2023-04-27T13:43:16.875Z,15.40
2023-04-27T13:45:45.367Z,15.30
2023-04-27T13:48:13.612Z,15.40
2023-04-27T13:50:41.926Z,15.30
2023-04-27T13:53:12.114Z,15.30
2023-04-27T13:55:40.450Z,15.20
2023-04-27T13:58:08.676Z,15.20
2023-04-27T14:00:37.432Z,15.10
2023-04-27T14:03:09.076Z,15.20
2023-04-27T14:05:37.397Z,15.20
2023-04-27T14:08:06.235Z,15.30
2023-04-27T14:10:38.068Z,15.20
2023-04-27T14:13:06.608Z,15.20
2023-04-27T14:15:37.336Z,15.30
2023-04-27T14:18:07.673Z,15.40
2023-04-27T14:20:36.171Z,15.30
2023-04-27T14:23:06.133Z,15.40
2023-04-27T14:25:35.864Z,15.30
2023-04-27T14:28:07.082Z,15.30
2023-04-27T14:30:36.158Z,15.20
2023-04-27T14:33:04.734Z,15.30
2023-04-27T14:35:35.950Z,15.20
2023-04-27T14:38:04.516Z,15.20
2023-04-27T14:40:34.811Z,15.20
2023-04-27T14:43:02.973Z,15.10
2023-04-27T14:45:43.596Z,15.00
2023-04-27T14:48:18.914Z,15.00
2023-04-27T14:50:47.352Z,14.90
2023-04-27T14:53:15.594Z,14.90
2023-04-27T14:55:45.962Z,14.80
2023-04-27T14:58:14.210Z,14.80
2023-04-27T15:00:42.403Z,14.80
2023-04-27T15:03:10.782Z,14.90
2023-04-27T15:05:39.269Z,14.90
2023-04-27T15:08:07.488Z,14.90
2023-04-27T15:10:35.698Z,15.00
2023-04-27T15:13:05.325Z,15.00
2023-04-27T15:15:33.542Z,15.00
2023-04-27T15:18:02.079Z,14.90
2023-04-27T15:20:30.384Z,14.90
2023-04-27T15:22:58.550Z,14.90
2023-04-27T15:25:26.827Z,14.80
2023-04-27T15:27:55.058Z,14.70
2023-04-27T15:30:24.714Z,14.70
2023-04-27T15:32:52.936Z,14.70
2023-04-27T15:35:21.202Z,14.70
2023-04-27T15:37:49.395Z,14.70
2023-04-27T15:40:18.301Z,14.70
2023-04-27T15:42:46.494Z,14.60
2023-04-27T15:45:14.657Z,14.70
2023-04-27T15:47:44.278Z,14.70
2023-04-27T15:50:13.247Z,14.60
2023-04-27T15:52:41.456Z,14.60
2023-04-27T15:55:10.286Z,14.60
2023-04-27T15:57:38.552Z,14.60
2023-04-27T16:00:10.390Z,14.60
2023-04-27T16:02:38.886Z,14.60
2023-04-27T16:05:10.872Z,14.60
2023-04-27T16:07:40.263Z,14.50
2023-04-27T16:10:11.185Z,14.50
2023-04-27T16:12:39.345Z,14.50
2023-04-27T16:15:10.922Z,14.40
2023-04-27T16:17:40.107Z,14.40
2023-04-27T16:20:10.649Z,14.40
2023-04-27T16:22:39.329Z,14.40
2023-04-27T16:25:10.833Z,14.40
2023-04-27T16:27:39.552Z,14.40
2023-04-27T16:30:09.367Z,14.40
2023-04-27T16:32:38.453Z,14.40
2023-04-27T16:35:09.554Z,14.40
2023-04-27T16:37:37.720Z,14.30
2023-04-27T16:40:08.342Z,14.40
2023-04-27T16:42:36.565Z,14.30
2023-04-27T16:45:06.763Z,14.30
2023-04-27T16:47:36.569Z,14.30
2023-04-27T16:50:05.247Z,14.30
2023-04-27T16:52:34.863Z,14.20
2023-04-27T16:55:03.119Z,14.20
2023-04-27T16:57:31.329Z,14.20
2023-04-27T16:59:59.754Z,14.20
2023-04-27T17:02:28.240Z,14.20
2023-04-27T17:04:57.617Z,14.20
2023-04-27T17:07:28.443Z,14.10
2023-04-27T17:09:58.067Z,14.10
2023-04-27T17:12:26.454Z,14.10
2023-04-27T17:14:54.651Z,14.10
2023-04-27T17:17:22.869Z,14.00
2023-04-27T17:19:51.495Z,14.00
2023-04-27T17:22:19.858Z,13.90
2023-04-27T17:24:48.032Z,13.90
2023-04-27T17:27:17.757Z,13.90
2023-04-27T17:29:46.013Z,13.80
2023-04-27T17:32:14.287Z,13.80
2023-04-27T17:34:43.167Z,13.80
2023-04-27T17:37:11.626Z,13.80
2023-04-27T17:39:39.870Z,13.70
2023-04-27T17:42:12.237Z,13.70
2023-04-27T17:44:42.402Z,13.70
2023-04-27T17:47:10.748Z,13.70
2023-04-27T17:49:39.037Z,13.60
2023-04-27T17:52:07.298Z,13.50
2023-04-27T17:54:35.512Z,13.50
2023-04-27T17:57:03.968Z,13.50
2023-04-27T17:59:32.205Z,13.40
2023-04-27T18:02:01.788Z,13.40
2023-04-27T18:04:30.174Z,13.40
2023-04-27T18:06:58.406Z,13.30
2023-04-27T18:09:28.779Z,13.30
2023-04-27T18:11:58.529Z,13.30
2023-04-27T18:14:26.983Z,13.20
2023-04-27T18:16:55.348Z,13.20
2023-04-27T18:19:24.977Z,13.20
2023-04-27T18:21:53.219Z,13.20
2023-04-27T18:24:21.491Z,13.10
2023-04-27T18:26:49.724Z,13.00
2023-04-27T18:29:18.034Z,13.00
2023-04-27T18:31:46.580Z,12.90
2023-04-27T18:34:14.809Z,12.90
2023-04-27T18:36:48.025Z,12.90
2023-04-27T18:39:18.005Z,12.90
2023-04-27T18:41:46.202Z,12.80
2023-04-27T18:44:15.714Z,12.80
2023-04-27T18:46:44.712Z,12.70
2023-04-27T18:49:13.315Z,12.70
2023-04-27T18:51:43.079Z,12.70
2023-04-27T18:54:11.349Z,12.60
2023-04-27T18:56:39.839Z,12.60
2023-04-27T18:59:08.098Z,12.50
2023-04-27T19:01:37.717Z,12.50
2023-04-27T19:04:07.262Z,12.50
2023-04-27T19:06:36.292Z,12.40
2023-04-27T19:09:05.891Z,12.40
2023-04-27T19:11:34.183Z,12.40
2023-04-27T19:14:02.411Z,12.40
2023-04-27T19:16:30.667Z,12.30
2023-04-27T19:18:58.961Z,12.30
2023-04-27T19:21:27.275Z,12.30
2023-04-27T19:23:55.638Z,12.20
2023-04-27T19:26:26.034Z,12.20
2023-04-27T19:28:55.834Z,12.20
2023-04-27T19:31:24.249Z,12.20
2023-04-27T19:33:55.279Z,12.20
2023-04-27T19:36:24.115Z,12.10
2023-04-27T19:38:52.273Z,12.10
2023-04-27T19:41:20.917Z,12.10
2023-04-27T19:43:50.654Z,12.00
2023-04-27T19:46:18.946Z,12.00
2023-04-27T19:48:47.147Z,12.00
2023-04-27T19:51:15.366Z,11.90
2023-04-27T19:53:43.568Z,11.90
2023-04-27T19:56:11.766Z,11.90
2023-04-27T19:58:39.945Z,11.80
2023-04-27T20:01:11.685Z,11.90
2023-04-27T20:03:41.405Z,11.80
2023-04-27T20:06:10.436Z,11.80
2023-04-27T20:08:38.735Z,11.80
2023-04-27T20:11:07.018Z,11.80
2023-04-27T20:13:35.313Z,11.70
2023-04-27T20:16:05.058Z,11.70
2023-04-27T20:18:35.133Z,11.70
2023-04-27T20:21:04.146Z,11.70
2023-04-27T20:23:32.325Z,11.70
2023-04-27T20:26:00.570Z,11.60
2023-04-27T20:28:30.349Z,11.60
2023-04-27T20:30:58.837Z,11.60
2023-04-27T20:33:27.090Z,11.50
2023-04-27T20:36:03.691Z,11.50
2023-04-27T20:38:34.848Z,11.50
2023-04-27T20:41:03.756Z,11.50
2023-04-27T20:43:32.687Z,11.50
2023-04-27T20:46:00.970Z,11.50
2023-04-27T20:48:29.669Z,11.40
2023-04-27T20:50:59.469Z,11.40
2023-04-27T20:53:27.752Z,11.40
2023-04-27T20:55:56.043Z,11.40
2023-04-27T20:58:24.406Z,11.40
2023-04-27T21:00:52.858Z,11.40
2023-04-27T21:03:21.257Z,11.40
2023-04-27T21:05:50.148Z,11.40
2023-04-27T21:08:19.696Z,11.30
2023-04-27T21:10:47.944Z,11.40
2023-04-27T21:13:16.200Z,11.30
2023-04-27T21:15:44.419Z,11.30
2023-04-27T21:18:22.350Z,11.30
2023-04-27T21:20:57.738Z,11.30
2023-04-27T21:23:27.323Z,11.30
2023-04-27T21:25:55.898Z,11.30
2023-04-27T21:28:24.172Z,11.30
2023-04-27T21:30:52.414Z,11.30
2023-04-27T21:33:21.366Z,11.30
2023-04-27T21:35:49.584Z,11.30
2023-04-27T21:38:17.817Z,11.30
2023-04-27T21:40:47.375Z,11.20
2023-04-27T21:43:15.933Z,11.20
2023-04-27T21:45:44.082Z,11.20
2023-04-27T21:48:12.298Z,11.20
2023-04-27T21:50:40.499Z,11.20
2023-04-27T21:53:09.271Z,11.20
2023-04-27T21:55:37.437Z,11.20
2023-04-27T21:58:07.069Z,11.20
2023-04-27T22:00:35.839Z,11.20
2023-04-27T22:03:05.172Z,11.20
2023-04-27T22:05:33.539Z,11.10
2023-04-27T22:08:01.748Z,11.10
2023-04-27T22:10:29.994Z,11.10
2023-04-27T22:13:00.375Z,11.10
2023-04-27T22:15:32.290Z,11.20
2023-04-27T22:18:00.474Z,11.10
2023-04-27T22:20:29.424Z,11.10
2023-04-27T22:22:57.581Z,11.10
2023-04-27T22:25:25.855Z,11.10
2023-04-27T22:27:54.049Z,11.10
2023-04-27T22:30:22.257Z,11.00
2023-04-27T22:32:52.096Z,11.00
2023-04-27T22:35:26.198Z,11.00
2023-04-27T22:37:56.064Z,11.00
2023-04-27T22:40:24.718Z,11.00
2023-04-27T22:42:53.309Z,11.00
2023-04-27T22:45:22.047Z,10.90
2023-04-27T22:47:51.966Z,11.00
2023-04-27T22:50:20.512Z,10.90
2023-04-27T22:52:48.713Z,10.90
2023-04-27T22:55:17.101Z,10.90
2023-04-27T22:57:45.469Z,10.90
2023-04-27T23:00:15.228Z,10.90
2023-04-27T23:02:43.865Z,10.90
2023-04-27T23:05:13.640Z,10.80
2023-04-27T23:07:42.877Z,10.80
2023-04-27T23:10:12.960Z,10.80
2023-04-27T23:12:41.685Z,10.80
2023-04-27T23:15:10.705Z,10.80
2023-04-27T23:17:38.950Z,10.80
2023-04-27T23:20:24.119Z,10.80
2023-04-27T23:22:56.684Z,10.70
2023-04-27T23:25:24.920Z,10.70
2023-04-27T23:27:53.280Z,10.70
2023-04-27T23:30:22.479Z,10.70
2023-04-27T23:32:50.858Z,10.60
2023-04-27T23:35:19.074Z,10.60
2023-04-27T23:37:47.307Z,10.60
2023-04-27T23:40:17.105Z,10.60
2023-04-27T23:42:45.304Z,10.50
2023-04-27T23:45:13.597Z,10.50
2023-04-27T23:47:42.903Z,10.50
2023-04-27T23:50:11.763Z,10.40
2023-04-27T23:52:39.915Z,10.40
2023-04-27T23:55:10.295Z,10.40
2023-04-27T23:57:39.952Z,10.40
